Cat Spring, Texas
Current Conditions -  °F | °C
As of 9:55 AM on Saturday 25 Oct 2014 (Local Time) from KELA Reporting Station
Clear Clear  
Wind Chill: 70°   Ceiling: Unl
Heat Index: 70°   Visibility: 10mi
Dew Point: 64°   Wind: 3mph
Humidity: 80%   Direction: 290°WNW
Pressure: 30.19"   Gusts: NA
Location:  29.85°N, 96.33°W
Report Text: KELA 251455Z AUTO 29003KT 10SM CLR 21/18 A3019 RMK AO2 T02110175
Loading
Personal Weather Stations






























Interactive Weather Map
Tropical Storm Tracking
New forecast layout! Learn more

10-Day Weather Forecast

Advertisements
Track Severe Weather on mobile